sensor_id;sensor_type;location;lat;lon;timestamp;temperature;humidity
947;DHT22;460;48.734;9.152;2023-04-25T00:02:04;8.00;99.90
947;DHT22;460;48.734;9.152;2023-04-25T00:04:32;7.90;99.90
947;DHT22;460;48.734;9.152;2023-04-25T00:06:59;8.00;99.90
947;DHT22;460;48.734;9.152;2023-04-25T00:09:27;7.90;99.90
947;DHT22;460;48.734;9.152;2023-04-25T00:11:54;8.00;99.90
947;DHT22;460;48.734;9.152;2023-04-25T00:14:21;8.00;99.90
947;DHT22;460;48.734;9.152;2023-04-25T00:16:50;8.00;99.90
947;DHT22;460;48.734;9.152;2023-04-25T00:19:17;8.00;99.90
947;DHT22;460;48.734;9.152;2023-04-25T00:21:44;8.10;99.90
947;DHT22;460;48.734;9.152;2023-04-25T00:24:11;8.00;99.90
947;DHT22;460;48.734;9.152;2023-04-25T00:26:38;8.00;99.90
947;DHT22;460;48.734;9.152;2023-04-25T00:29:05;8.00;99.90
947;DHT22;460;48.734;9.152;2023-04-25T00:31:32;7.90;99.90
947;DHT22;460;48.734;9.152;2023-04-25T00:34:00;7.80;99.90
947;DHT22;460;48.734;9.152;2023-04-25T00:36:27;7.90;99.90
947;DHT22;460;48.734;9.152;2023-04-25T00:38:54;8.00;99.90
947;DHT22;460;48.734;9.152;2023-04-25T00:41:21;7.90;99.90
947;DHT22;460;48.734;9.152;2023-04-25T00:43:48;7.90;99.90
947;DHT22;460;48.734;9.152;2023-04-25T00:46:15;7.80;99.90
947;DHT22;460;48.734;9.152;2023-04-25T00:48:42;8.00;99.90
947;DHT22;460;48.734;9.152;2023-04-25T00:51:12;8.00;99.90
947;DHT22;460;48.734;9.152;2023-04-25T00:53:40;7.90;99.90
947;DHT22;460;48.734;9.152;2023-04-25T00:56:07;7.90;99.90
947;DHT22;460;48.734;9.152;2023-04-25T00:58:34;7.90;99.90
947;DHT22;460;48.734;9.152;2023-04-25T01:01:01;7.90;99.90
947;DHT22;460;48.734;9.152;2023-04-25T01:03:30;7.90;99.90
947;DHT22;460;48.734;9.152;2023-04-25T01:06:01;7.90;99.90
947;DHT22;460;48.734;9.152;2023-04-25T01:08:29;8.00;99.90
947;DHT22;460;48.734;9.152;2023-04-25T01:10:56;8.00;99.90
947;DHT22;460;48.734;9.152;2023-04-25T01:13:24;8.10;99.90
947;DHT22;460;48.734;9.152;2023-04-25T01:15:52;8.10;99.90
947;DHT22;460;48.734;9.152;2023-04-25T01:18:20;8.00;99.90
947;DHT22;460;48.734;9.152;2023-04-25T01:20:50;8.00;99.90
947;DHT22;460;48.734;9.152;2023-04-25T01:23:21;8.10;99.90
947;DHT22;460;48.734;9.152;2023-04-25T01:25:49;8.10;99.90
947;DHT22;460;48.734;9.152;2023-04-25T01:28:17;8.20;99.90
947;DHT22;460;48.734;9.152;2023-04-25T01:30:45;8.10;99.90
947;DHT22;460;48.734;9.152;2023-04-25T01:33:14;8.10;99.90
947;DHT22;460;48.734;9.152;2023-04-25T01:35:42;8.00;99.90
947;DHT22;460;48.734;9.152;2023-04-25T01:38:10;8.10;99.90
947;DHT22;460;48.734;9.152;2023-04-25T01:40:40;8.10;99.90
947;DHT22;460;48.734;9.152;2023-04-25T01:43:08;8.10;99.90
947;DHT22;460;48.734;9.152;2023-04-25T01:45:37;8.00;99.90
947;DHT22;460;48.734;9.152;2023-04-25T01:48:07;8.00;99.90
947;DHT22;460;48.734;9.152;2023-04-25T01:50:35;8.10;99.90
947;DHT22;460;48.734;9.152;2023-04-25T01:53:04;8.10;99.90
947;DHT22;460;48.734;9.152;2023-04-25T01:55:31;8.10;99.90
947;DHT22;460;48.734;9.152;2023-04-25T01:58:02;8.00;99.90
947;DHT22;460;48.734;9.152;2023-04-25T02:00:30;7.80;99.90
947;DHT22;460;48.734;9.152;2023-04-25T02:02:59;7.90;99.90
947;DHT22;460;48.734;9.152;2023-04-25T02:05:25;7.80;99.90
947;DHT22;460;48.734;9.152;2023-04-25T02:07:52;7.80;99.90
947;DHT22;460;48.734;9.152;2023-04-25T02:10:19;7.70;99.90
947;DHT22;460;48.734;9.152;2023-04-25T02:12:46;7.70;99.90
947;DHT22;460;48.734;9.152;2023-04-25T02:15:15;7.70;99.90
947;DHT22;460;48.734;9.152;2023-04-25T02:17:41;7.70;99.90
947;DHT22;460;48.734;9.152;2023-04-25T02:20:11;7.60;99.90
947;DHT22;460;48.734;9.152;2023-04-25T02:22:38;7.60;99.90
947;DHT22;460;48.734;9.152;2023-04-25T02:25:06;7.60;99.90
947;DHT22;460;48.734;9.152;2023-04-25T02:27:34;7.70;99.90
947;DHT22;460;48.734;9.152;2023-04-25T02:30:02;7.70;99.90
947;DHT22;460;48.734;9.152;2023-04-25T02:32:33;7.70;99.90
947;DHT22;460;48.734;9.152;2023-04-25T02:35:02;7.70;99.90
947;DHT22;460;48.734;9.152;2023-04-25T02:37:29;7.70;99.90
947;DHT22;460;48.734;9.152;2023-04-25T02:39:56;7.50;99.90
947;DHT22;460;48.734;9.152;2023-04-25T02:42:23;7.50;99.90
947;DHT22;460;48.734;9.152;2023-04-25T02:44:50;7.60;99.90
947;DHT22;460;48.734;9.152;2023-04-25T02:47:19;7.50;99.90
947;DHT22;460;48.734;9.152;2023-04-25T02:49:48;7.50;99.90
947;DHT22;460;48.734;9.152;2023-04-25T02:52:15;7.40;99.90
947;DHT22;460;48.734;9.152;2023-04-25T02:54:44;7.40;99.90
947;DHT22;460;48.734;9.152;2023-04-25T02:57:10;7.50;99.90
947;DHT22;460;48.734;9.152;2023-04-25T02:59:38;7.50;99.90
947;DHT22;460;48.734;9.152;2023-04-25T03:02:05;7.40;99.90
947;DHT22;460;48.734;9.152;2023-04-25T03:04:32;7.40;99.90
947;DHT22;460;48.734;9.152;2023-04-25T03:07:02;7.30;99.90
947;DHT22;460;48.734;9.152;2023-04-25T03:09:30;7.20;99.90
947;DHT22;460;48.734;9.152;2023-04-25T03:11:57;7.30;99.90
947;DHT22;460;48.734;9.152;2023-04-25T03:14:23;7.20;99.90
947;DHT22;460;48.734;9.152;2023-04-25T03:16:50;7.20;99.90
947;DHT22;460;48.734;9.152;2023-04-25T03:19:17;7.20;99.90
947;DHT22;460;48.734;9.152;2023-04-25T03:21:44;7.20;99.90
947;DHT22;460;48.734;9.152;2023-04-25T03:24:12;7.10;99.90
947;DHT22;460;48.734;9.152;2023-04-25T03:26:39;7.30;99.90
947;DHT22;460;48.734;9.152;2023-04-25T03:29:06;7.20;99.90
947;DHT22;460;48.734;9.152;2023-04-25T03:31:33;7.30;99.90
947;DHT22;460;48.734;9.152;2023-04-25T03:34:00;7.30;99.90
947;DHT22;460;48.734;9.152;2023-04-25T03:36:26;7.30;99.90
947;DHT22;460;48.734;9.152;2023-04-25T03:38:53;7.40;99.90
947;DHT22;460;48.734;9.152;2023-04-25T03:41:21;7.40;99.90
947;DHT22;460;48.734;9.152;2023-04-25T03:43:48;7.30;99.90
947;DHT22;460;48.734;9.152;2023-04-25T03:46:15;7.30;99.90
947;DHT22;460;48.734;9.152;2023-04-25T03:48:42;7.30;99.90
947;DHT22;460;48.734;9.152;2023-04-25T03:51:08;7.20;99.90
947;DHT22;460;48.734;9.152;2023-04-25T03:53:35;7.30;99.90
947;DHT22;460;48.734;9.152;2023-04-25T03:56:02;7.20;99.90
947;DHT22;460;48.734;9.152;2023-04-25T03:58:30;7.10;99.90
947;DHT22;460;48.734;9.152;2023-04-25T04:00:57;7.10;99.90
947;DHT22;460;48.734;9.152;2023-04-25T04:03:24;7.20;99.90
947;DHT22;460;48.734;9.152;2023-04-25T04:05:51;7.20;99.90
947;DHT22;460;48.734;9.152;2023-04-25T04:08:17;7.20;99.90
947;DHT22;460;48.734;9.152;2023-04-25T04:10:44;7.10;99.90
947;DHT22;460;48.734;9.152;2023-04-25T04:13:11;7.30;99.90
947;DHT22;460;48.734;9.152;2023-04-25T04:15:39;7.20;99.90
947;DHT22;460;48.734;9.152;2023-04-25T04:18:06;7.20;99.90
947;DHT22;460;48.734;9.152;2023-04-25T04:20:33;7.20;99.90
947;DHT22;460;48.734;9.152;2023-04-25T04:23:00;7.20;99.90
947;DHT22;460;48.734;9.152;2023-04-25T04:25:26;7.10;99.90
947;DHT22;460;48.734;9.152;2023-04-25T04:27:54;7.10;99.90
947;DHT22;460;48.734;9.152;2023-04-25T04:30:21;7.00;99.90
947;DHT22;460;48.734;9.152;2023-04-25T04:32:50;7.00;99.90
947;DHT22;460;48.734;9.152;2023-04-25T04:35:17;7.00;99.90
947;DHT22;460;48.734;9.152;2023-04-25T04:37:44;7.00;99.90
947;DHT22;460;48.734;9.152;2023-04-25T04:40:12;7.00;99.90
947;DHT22;460;48.734;9.152;2023-04-25T04:42:41;7.00;99.90
947;DHT22;460;48.734;9.152;2023-04-25T04:45:08;7.00;99.90
947;DHT22;460;48.734;9.152;2023-04-25T04:47:35;7.00;99.90
947;DHT22;460;48.734;9.152;2023-04-25T04:50:07;7.00;99.90
947;DHT22;460;48.734;9.152;2023-04-25T04:52:35;7.00;99.90
947;DHT22;460;48.734;9.152;2023-04-25T04:55:02;7.00;99.90
947;DHT22;460;48.734;9.152;2023-04-25T04:57:29;7.10;99.90
947;DHT22;460;48.734;9.152;2023-04-25T04:59:58;7.10;99.90
947;DHT22;460;48.734;9.152;2023-04-25T05:02:25;7.20;99.90
947;DHT22;460;48.734;9.152;2023-04-25T05:04:52;7.20;99.90
947;DHT22;460;48.734;9.152;2023-04-25T05:07:21;7.20;99.90
947;DHT22;460;48.734;9.152;2023-04-25T05:09:47;7.30;99.90
947;DHT22;460;48.734;9.152;2023-04-25T05:12:14;7.40;99.90
947;DHT22;460;48.734;9.152;2023-04-25T05:14:41;7.30;99.90
947;DHT22;460;48.734;9.152;2023-04-25T05:17:08;7.40;99.90
947;DHT22;460;48.734;9.152;2023-04-25T05:19:35;7.40;99.90
947;DHT22;460;48.734;9.152;2023-04-25T05:22:02;7.40;99.90
947;DHT22;460;48.734;9.152;2023-04-25T05:24:30;7.50;99.90
947;DHT22;460;48.734;9.152;2023-04-25T05:26:57;7.60;99.90
947;DHT22;460;48.734;9.152;2023-04-25T05:29:24;7.60;99.90
947;DHT22;460;48.734;9.152;2023-04-25T05:31:54;7.60;99.90
947;DHT22;460;48.734;9.152;2023-04-25T05:34:28;7.60;99.90
947;DHT22;460;48.734;9.152;2023-04-25T05:36:55;7.70;99.90
947;DHT22;460;48.734;9.152;2023-04-25T05:39:22;7.60;99.90
947;DHT22;460;48.734;9.152;2023-04-25T05:41:50;7.70;99.90
947;DHT22;460;48.734;9.152;2023-04-25T05:44:17;7.70;99.90
947;DHT22;460;48.734;9.152;2023-04-25T05:46:43;7.80;99.90
947;DHT22;460;48.734;9.152;2023-04-25T05:49:10;7.80;99.90
947;DHT22;460;48.734;9.152;2023-04-25T05:51:37;7.90;99.90
947;DHT22;460;48.734;9.152;2023-04-25T05:54:04;8.00;99.90
947;DHT22;460;48.734;9.152;2023-04-25T05:56:31;7.90;99.90
947;DHT22;460;48.734;9.152;2023-04-25T05:58:59;7.90;99.90
947;DHT22;460;48.734;9.152;2023-04-25T06:01:26;7.80;99.90
947;DHT22;460;48.734;9.152;2023-04-25T06:03:53;7.90;99.90
947;DHT22;460;48.734;9.152;2023-04-25T06:06:20;7.80;99.90
947;DHT22;460;48.734;9.152;2023-04-25T06:08:46;7.80;99.90
947;DHT22;460;48.734;9.152;2023-04-25T06:11:13;7.80;99.90
947;DHT22;460;48.734;9.152;2023-04-25T06:13:40;7.70;99.90
947;DHT22;460;48.734;9.152;2023-04-25T06:16:08;7.80;99.90
947;DHT22;460;48.734;9.152;2023-04-25T06:18:35;7.70;99.90
947;DHT22;460;48.734;9.152;2023-04-25T06:21:02;7.70;99.90
947;DHT22;460;48.734;9.152;2023-04-25T06:23:28;7.60;99.90
947;DHT22;460;48.734;9.152;2023-04-25T06:25:55;7.70;99.90
947;DHT22;460;48.734;9.152;2023-04-25T06:28:22;7.70;99.90
947;DHT22;460;48.734;9.152;2023-04-25T06:30:49;7.60;99.90
947;DHT22;460;48.734;9.152;2023-04-25T06:33:18;7.60;99.90
947;DHT22;460;48.734;9.152;2023-04-25T06:35:45;7.60;99.90
947;DHT22;460;48.734;9.152;2023-04-25T06:38:12;7.50;99.90
947;DHT22;460;48.734;9.152;2023-04-25T06:40:39;7.50;99.90
947;DHT22;460;48.734;9.152;2023-04-25T06:43:06;7.50;99.90
947;DHT22;460;48.734;9.152;2023-04-25T06:45:32;7.50;99.90
947;DHT22;460;48.734;9.152;2023-04-25T06:47:59;7.40;99.90
947;DHT22;460;48.734;9.152;2023-04-25T06:50:27;7.30;99.90
947;DHT22;460;48.734;9.152;2023-04-25T06:52:54;7.20;99.90
947;DHT22;460;48.734;9.152;2023-04-25T06:55:21;7.20;99.90
947;DHT22;460;48.734;9.152;2023-04-25T06:57:48;7.20;99.90
947;DHT22;460;48.734;9.152;2023-04-25T07:00:15;7.20;99.90
947;DHT22;460;48.734;9.152;2023-04-25T07:02:42;7.20;99.90
947;DHT22;460;48.734;9.152;2023-04-25T07:05:09;7.20;99.90
947;DHT22;460;48.734;9.152;2023-04-25T07:07:37;7.20;99.90
947;DHT22;460;48.734;9.152;2023-04-25T07:10:05;7.20;99.90
947;DHT22;460;48.734;9.152;2023-04-25T07:12:32;7.10;99.90
947;DHT22;460;48.734;9.152;2023-04-25T07:14:58;7.20;99.90
947;DHT22;460;48.734;9.152;2023-04-25T07:17:31;7.20;99.90
947;DHT22;460;48.734;9.152;2023-04-25T07:19:58;7.20;99.90
947;DHT22;460;48.734;9.152;2023-04-25T07:22:25;7.20;99.90
947;DHT22;460;48.734;9.152;2023-04-25T07:24:54;7.10;99.90
947;DHT22;460;48.734;9.152;2023-04-25T07:27:21;7.10;99.90
947;DHT22;460;48.734;9.152;2023-04-25T07:29:47;7.10;99.90
947;DHT22;460;48.734;9.152;2023-04-25T07:32:14;7.10;99.90
947;DHT22;460;48.734;9.152;2023-04-25T07:34:41;7.10;99.90
947;DHT22;460;48.734;9.152;2023-04-25T07:37:08;7.20;99.90
947;DHT22;460;48.734;9.152;2023-04-25T07:39:35;7.20;99.90
947;DHT22;460;48.734;9.152;2023-04-25T07:42:04;7.20;99.90
947;DHT22;460;48.734;9.152;2023-04-25T07:44:33;7.10;99.90
947;DHT22;460;48.734;9.152;2023-04-25T07:47:04;7.10;99.90
947;DHT22;460;48.734;9.152;2023-04-25T07:49:32;7.10;99.90
947;DHT22;460;48.734;9.152;2023-04-25T07:51:59;7.20;99.90
947;DHT22;460;48.734;9.152;2023-04-25T07:54:26;7.10;99.90
947;DHT22;460;48.734;9.152;2023-04-25T07:56:53;7.20;99.90
947;DHT22;460;48.734;9.152;2023-04-25T07:59:28;7.20;99.90
947;DHT22;460;48.734;9.152;2023-04-25T08:01:55;7.30;99.90
947;DHT22;460;48.734;9.152;2023-04-25T08:04:25;7.20;99.90
947;DHT22;460;48.734;9.152;2023-04-25T08:06:52;7.20;99.90
947;DHT22;460;48.734;9.152;2023-04-25T08:09:19;7.30;99.90
947;DHT22;460;48.734;9.152;2023-04-25T08:11:46;7.30;99.90
947;DHT22;460;48.734;9.152;2023-04-25T08:14:13;7.30;99.90
947;DHT22;460;48.734;9.152;2023-04-25T08:16:41;7.40;99.90
947;DHT22;460;48.734;9.152;2023-04-25T08:19:09;7.50;99.90
947;DHT22;460;48.734;9.152;2023-04-25T08:21:36;7.40;99.90
947;DHT22;460;48.734;9.152;2023-04-25T08:24:03;7.40;99.90
947;DHT22;460;48.734;9.152;2023-04-25T08:26:30;7.40;99.90
947;DHT22;460;48.734;9.152;2023-04-25T08:28:57;7.40;99.90
947;DHT22;460;48.734;9.152;2023-04-25T08:31:24;7.30;99.90
947;DHT22;460;48.734;9.152;2023-04-25T08:33:53;7.30;99.90
947;DHT22;460;48.734;9.152;2023-04-25T08:36:19;7.30;99.90
947;DHT22;460;48.734;9.152;2023-04-25T08:38:46;7.30;99.90
947;DHT22;460;48.734;9.152;2023-04-25T08:41:13;7.30;99.90
947;DHT22;460;48.734;9.152;2023-04-25T08:43:42;7.40;99.90
947;DHT22;460;48.734;9.152;2023-04-25T08:46:09;7.40;99.90
947;DHT22;460;48.734;9.152;2023-04-25T08:48:40;7.40;99.90
947;DHT22;460;48.734;9.152;2023-04-25T08:51:10;7.30;99.90
947;DHT22;460;48.734;9.152;2023-04-25T08:53:41;7.30;99.90
947;DHT22;460;48.734;9.152;2023-04-25T08:56:10;7.40;99.90
947;DHT22;460;48.734;9.152;2023-04-25T08:58:39;7.50;99.90
947;DHT22;460;48.734;9.152;2023-04-25T09:01:06;7.50;99.90
947;DHT22;460;48.734;9.152;2023-04-25T09:03:33;7.50;99.90
947;DHT22;460;48.734;9.152;2023-04-25T09:06:01;7.50;99.90
947;DHT22;460;48.734;9.152;2023-04-25T09:08:29;7.50;99.90
947;DHT22;460;48.734;9.152;2023-04-25T09:10:56;7.40;99.90
947;DHT22;460;48.734;9.152;2023-04-25T09:13:27;7.40;99.90
947;DHT22;460;48.734;9.152;2023-04-25T09:15:55;7.30;99.90
947;DHT22;460;48.734;9.152;2023-04-25T09:18:23;7.40;99.90
947;DHT22;460;48.734;9.152;2023-04-25T09:20:52;7.40;99.90
947;DHT22;460;48.734;9.152;2023-04-25T09:23:20;7.40;99.90
947;DHT22;460;48.734;9.152;2023-04-25T09:25:49;7.40;99.90
947;DHT22;460;48.734;9.152;2023-04-25T09:28:23;7.50;99.90
947;DHT22;460;48.734;9.152;2023-04-25T09:30:54;7.60;99.90
947;DHT22;460;48.734;9.152;2023-04-25T09:33:28;7.60;99.90
947;DHT22;460;48.734;9.152;2023-04-25T09:36:03;7.60;99.90
947;DHT22;460;48.734;9.152;2023-04-25T09:38:30;7.40;99.90
947;DHT22;460;48.734;9.152;2023-04-25T09:40:59;7.50;99.90
947;DHT22;460;48.734;9.152;2023-04-25T09:43:27;7.60;99.90
947;DHT22;460;48.734;9.152;2023-04-25T09:45:54;7.50;99.90
947;DHT22;460;48.734;9.152;2023-04-25T09:48:26;7.50;99.90
947;DHT22;460;48.734;9.152;2023-04-25T09:51:06;7.50;99.90
947;DHT22;460;48.734;9.152;2023-04-25T09:53:34;7.50;99.90
947;DHT22;460;48.734;9.152;2023-04-25T09:56:04;7.30;99.90
947;DHT22;460;48.734;9.152;2023-04-25T09:58:32;7.30;99.90
947;DHT22;460;48.734;9.152;2023-04-25T10:01:01;7.10;99.90
947;DHT22;460;48.734;9.152;2023-04-25T10:03:30;7.10;99.90
947;DHT22;460;48.734;9.152;2023-04-25T10:05:59;7.10;99.90
947;DHT22;460;48.734;9.152;2023-04-25T10:08:30;7.00;99.90
947;DHT22;460;48.734;9.152;2023-04-25T10:10:59;6.90;99.90
947;DHT22;460;48.734;9.152;2023-04-25T10:13:28;7.00;99.90
947;DHT22;460;48.734;9.152;2023-04-25T10:15:57;7.10;99.90
947;DHT22;460;48.734;9.152;2023-04-25T10:18:25;7.10;99.90
947;DHT22;460;48.734;9.152;2023-04-25T10:20:54;7.00;99.90
947;DHT22;460;48.734;9.152;2023-04-25T10:23:21;7.10;99.90
947;DHT22;460;48.734;9.152;2023-04-25T10:25:48;7.20;99.90
947;DHT22;460;48.734;9.152;2023-04-25T10:28:15;7.00;99.90
947;DHT22;460;48.734;9.152;2023-04-25T10:33:38;7.00;99.90
947;DHT22;460;48.734;9.152;2023-04-25T10:36:11;7.20;99.90
947;DHT22;460;48.734;9.152;2023-04-25T10:38:38;7.20;99.90
947;DHT22;460;48.734;9.152;2023-04-25T10:41:06;7.20;99.90
947;DHT22;460;48.734;9.152;2023-04-25T10:43:35;7.20;99.90
947;DHT22;460;48.734;9.152;2023-04-25T10:46:03;7.10;99.90
947;DHT22;460;48.734;9.152;2023-04-25T10:48:45;7.10;99.90
947;DHT22;460;48.734;9.152;2023-04-25T10:51:16;7.00;99.90
947;DHT22;460;48.734;9.152;2023-04-25T10:53:44;6.90;99.90
947;DHT22;460;48.734;9.152;2023-04-25T10:56:11;7.00;99.90
947;DHT22;460;48.734;9.152;2023-04-25T10:58:42;7.00;99.90
947;DHT22;460;48.734;9.152;2023-04-25T11:01:09;7.10;99.90
947;DHT22;460;48.734;9.152;2023-04-25T11:03:40;7.00;99.90
947;DHT22;460;48.734;9.152;2023-04-25T11:06:15;7.00;99.90
947;DHT22;460;48.734;9.152;2023-04-25T11:08:48;7.10;99.90
947;DHT22;460;48.734;9.152;2023-04-25T11:11:16;7.00;99.90
947;DHT22;460;48.734;9.152;2023-04-25T11:13:44;6.90;99.90
947;DHT22;460;48.734;9.152;2023-04-25T11:16:11;6.80;99.90
947;DHT22;460;48.734;9.152;2023-04-25T11:18:40;6.60;99.90
947;DHT22;460;48.734;9.152;2023-04-25T11:21:08;6.70;99.90
947;DHT22;460;48.734;9.152;2023-04-25T11:23:35;6.70;99.90
947;DHT22;460;48.734;9.152;2023-04-25T11:26:02;6.60;99.90
947;DHT22;460;48.734;9.152;2023-04-25T11:28:29;6.70;99.90
947;DHT22;460;48.734;9.152;2023-04-25T11:30:56;6.70;99.90
947;DHT22;460;48.734;9.152;2023-04-25T11:33:24;6.60;99.90
947;DHT22;460;48.734;9.152;2023-04-25T11:35:53;6.70;99.90
947;DHT22;460;48.734;9.152;2023-04-25T11:38:22;6.80;99.90
947;DHT22;460;48.734;9.152;2023-04-25T11:40:50;7.00;99.90
947;DHT22;460;48.734;9.152;2023-04-25T11:43:19;7.00;99.90
947;DHT22;460;48.734;9.152;2023-04-25T11:45:47;7.00;99.90
947;DHT22;460;48.734;9.152;2023-04-25T11:48:14;7.20;99.90
947;DHT22;460;48.734;9.152;2023-04-25T11:50:41;7.30;99.90
947;DHT22;460;48.734;9.152;2023-04-25T11:53:08;7.40;99.90
947;DHT22;460;48.734;9.152;2023-04-25T11:55:37;7.40;99.90
947;DHT22;460;48.734;9.152;2023-04-25T11:58:05;7.60;99.90
947;DHT22;460;48.734;9.152;2023-04-25T12:00:34;7.50;99.90
947;DHT22;460;48.734;9.152;2023-04-25T12:03:01;7.50;99.90
947;DHT22;460;48.734;9.152;2023-04-25T12:05:29;7.40;99.90
947;DHT22;460;48.734;9.152;2023-04-25T12:08:09;7.30;99.90
947;DHT22;460;48.734;9.152;2023-04-25T12:10:39;7.20;99.90
947;DHT22;460;48.734;9.152;2023-04-25T12:13:19;7.10;99.90
947;DHT22;460;48.734;9.152;2023-04-25T12:15:46;7.10;99.90
947;DHT22;460;48.734;9.152;2023-04-25T12:18:14;7.10;99.90
947;DHT22;460;48.734;9.152;2023-04-25T12:20:41;7.10;99.90
947;DHT22;460;48.734;9.152;2023-04-25T12:23:08;7.20;99.90
947;DHT22;460;48.734;9.152;2023-04-25T12:25:39;7.30;99.90
947;DHT22;460;48.734;9.152;2023-04-25T12:28:11;7.30;99.90
947;DHT22;460;48.734;9.152;2023-04-25T12:30:56;7.20;99.90
947;DHT22;460;48.734;9.152;2023-04-25T12:33:23;7.30;99.90
947;DHT22;460;48.734;9.152;2023-04-25T12:35:52;7.20;99.90
947;DHT22;460;48.734;9.152;2023-04-25T12:38:23;7.40;99.90
947;DHT22;460;48.734;9.152;2023-04-25T12:40:52;7.50;99.90
947;DHT22;460;48.734;9.152;2023-04-25T12:43:19;7.50;99.90
947;DHT22;460;48.734;9.152;2023-04-25T12:45:48;7.60;99.90
947;DHT22;460;48.734;9.152;2023-04-25T12:48:15;7.40;99.90
947;DHT22;460;48.734;9.152;2023-04-25T12:50:42;7.60;99.90
947;DHT22;460;48.734;9.152;2023-04-25T12:53:09;7.90;99.90
947;DHT22;460;48.734;9.152;2023-04-25T12:55:37;7.70;99.90
947;DHT22;460;48.734;9.152;2023-04-25T12:58:05;7.90;99.90
947;DHT22;460;48.734;9.152;2023-04-25T13:00:32;8.10;99.90
947;DHT22;460;48.734;9.152;2023-04-25T13:02:58;8.20;99.90
947;DHT22;460;48.734;9.152;2023-04-25T13:05:25;8.40;99.90
947;DHT22;460;48.734;9.152;2023-04-25T13:07:52;8.60;99.90
947;DHT22;460;48.734;9.152;2023-04-25T13:10:19;8.80;99.90
947;DHT22;460;48.734;9.152;2023-04-25T13:12:46;8.90;99.90
947;DHT22;460;48.734;9.152;2023-04-25T13:15:14;9.00;99.90
947;DHT22;460;48.734;9.152;2023-04-25T13:17:42;9.10;99.90
947;DHT22;460;48.734;9.152;2023-04-25T13:20:09;9.10;99.90
947;DHT22;460;48.734;9.152;2023-04-25T13:22:37;9.10;99.90
947;DHT22;460;48.734;9.152;2023-04-25T13:25:05;9.10;99.90
947;DHT22;460;48.734;9.152;2023-04-25T13:27:33;9.10;99.90
947;DHT22;460;48.734;9.152;2023-04-25T13:30:01;9.40;99.90
947;DHT22;460;48.734;9.152;2023-04-25T13:32:34;9.80;99.90
947;DHT22;460;48.734;9.152;2023-04-25T13:35:01;9.70;99.90
947;DHT22;460;48.734;9.152;2023-04-25T13:37:28;9.80;99.90
947;DHT22;460;48.734;9.152;2023-04-25T13:39:56;10.10;99.90
947;DHT22;460;48.734;9.152;2023-04-25T13:42:23;10.20;99.90
947;DHT22;460;48.734;9.152;2023-04-25T13:44:50;10.30;99.90
947;DHT22;460;48.734;9.152;2023-04-25T13:47:16;10.60;99.90
947;DHT22;460;48.734;9.152;2023-04-25T13:49:45;10.60;99.90
947;DHT22;460;48.734;9.152;2023-04-25T13:52:11;10.30;99.90
947;DHT22;460;48.734;9.152;2023-04-25T13:54:38;10.00;99.90
947;DHT22;460;48.734;9.152;2023-04-25T13:57:06;9.70;99.90
947;DHT22;460;48.734;9.152;2023-04-25T13:59:33;9.50;99.90
947;DHT22;460;48.734;9.152;2023-04-25T14:02:00;9.40;99.90
947;DHT22;460;48.734;9.152;2023-04-25T14:04:27;9.30;99.90
947;DHT22;460;48.734;9.152;2023-04-25T14:06:55;9.30;99.90
947;DHT22;460;48.734;9.152;2023-04-25T14:09:22;9.40;99.90
947;DHT22;460;48.734;9.152;2023-04-25T14:11:51;9.30;99.90
947;DHT22;460;48.734;9.152;2023-04-25T14:14:17;9.50;99.90
947;DHT22;460;48.734;9.152;2023-04-25T14:16:44;9.80;99.90
947;DHT22;460;48.734;9.152;2023-04-25T14:19:13;11.20;99.90
947;DHT22;460;48.734;9.152;2023-04-25T14:21:40;12.40;99.90
947;DHT22;460;48.734;9.152;2023-04-25T14:24:08;12.10;98.30
947;DHT22;460;48.734;9.152;2023-04-25T14:26:36;13.00;98.70
947;DHT22;460;48.734;9.152;2023-04-25T14:29:04;13.10;96.50
947;DHT22;460;48.734;9.152;2023-04-25T14:31:32;12.80;96.20
947;DHT22;460;48.734;9.152;2023-04-25T14:33:59;12.40;96.70
947;DHT22;460;48.734;9.152;2023-04-25T14:36:25;12.90;96.10
947;DHT22;460;48.734;9.152;2023-04-25T14:38:52;13.70;96.00
947;DHT22;460;48.734;9.152;2023-04-25T14:41:21;14.20;93.60
947;DHT22;460;48.734;9.152;2023-04-25T14:43:48;14.10;92.60
947;DHT22;460;48.734;9.152;2023-04-25T14:46:15;13.10;91.10
947;DHT22;460;48.734;9.152;2023-04-25T14:48:42;12.80;93.20
947;DHT22;460;48.734;9.152;2023-04-25T14:51:09;12.30;93.20
947;DHT22;460;48.734;9.152;2023-04-25T14:53:36;11.40;93.40
947;DHT22;460;48.734;9.152;2023-04-25T14:56:03;10.90;94.40
947;DHT22;460;48.734;9.152;2023-04-25T14:58:31;11.00;95.00
947;DHT22;460;48.734;9.152;2023-04-25T15:00:58;11.40;97.30
947;DHT22;460;48.734;9.152;2023-04-25T15:03:25;11.60;96.30
947;DHT22;460;48.734;9.152;2023-04-25T15:05:53;11.80;95.40
947;DHT22;460;48.734;9.152;2023-04-25T15:08:21;11.80;96.00
947;DHT22;460;48.734;9.152;2023-04-25T15:10:48;11.70;95.10
947;DHT22;460;48.734;9.152;2023-04-25T15:13:14;11.70;95.00
947;DHT22;460;48.734;9.152;2023-04-25T15:15:43;11.40;94.80
947;DHT22;460;48.734;9.152;2023-04-25T15:18:10;11.60;94.50
947;DHT22;460;48.734;9.152;2023-04-25T15:20:37;11.50;94.20
947;DHT22;460;48.734;9.152;2023-04-25T15:23:03;11.30;94.10
947;DHT22;460;48.734;9.152;2023-04-25T15:25:31;11.10;92.00
947;DHT22;460;48.734;9.152;2023-04-25T15:27:57;11.00;92.60
947;DHT22;460;48.734;9.152;2023-04-25T15:30:25;11.00;94.50
947;DHT22;460;48.734;9.152;2023-04-25T15:32:53;10.90;94.60
947;DHT22;460;48.734;9.152;2023-04-25T15:35:20;11.00;95.20
947;DHT22;460;48.734;9.152;2023-04-25T15:37:47;11.00;94.30
947;DHT22;460;48.734;9.152;2023-04-25T15:40:16;11.20;94.20
947;DHT22;460;48.734;9.152;2023-04-25T15:42:44;11.30;93.70
947;DHT22;460;48.734;9.152;2023-04-25T15:45:13;11.40;93.50
947;DHT22;460;48.734;9.152;2023-04-25T15:47:42;11.30;93.50
947;DHT22;460;48.734;9.152;2023-04-25T15:50:11;11.30;94.20
947;DHT22;460;48.734;9.152;2023-04-25T15:52:41;11.50;94.50
947;DHT22;460;48.734;9.152;2023-04-25T15:55:09;11.10;93.30
947;DHT22;460;48.734;9.152;2023-04-25T15:57:37;11.10;93.90
947;DHT22;460;48.734;9.152;2023-04-25T16:00:08;10.80;93.40
947;DHT22;460;48.734;9.152;2023-04-25T16:02:37;10.80;94.00
947;DHT22;460;48.734;9.152;2023-04-25T16:05:05;10.80;94.20
947;DHT22;460;48.734;9.152;2023-04-25T16:07:33;11.00;94.40
947;DHT22;460;48.734;9.152;2023-04-25T16:10:00;11.10;94.40
947;DHT22;460;48.734;9.152;2023-04-25T16:12:27;10.90;93.70
947;DHT22;460;48.734;9.152;2023-04-25T16:14:55;10.70;94.70
947;DHT22;460;48.734;9.152;2023-04-25T16:17:26;10.70;93.90
947;DHT22;460;48.734;9.152;2023-04-25T16:19:54;10.50;94.50
947;DHT22;460;48.734;9.152;2023-04-25T16:22:21;10.30;95.30
947;DHT22;460;48.734;9.152;2023-04-25T16:24:49;10.00;94.90
947;DHT22;460;48.734;9.152;2023-04-25T16:27:16;9.90;96.40
947;DHT22;460;48.734;9.152;2023-04-25T16:29:43;9.90;97.30
947;DHT22;460;48.734;9.152;2023-04-25T16:32:10;9.70;96.50
947;DHT22;460;48.734;9.152;2023-04-25T16:34:37;9.80;98.10
947;DHT22;460;48.734;9.152;2023-04-25T16:37:04;9.70;98.60
947;DHT22;460;48.734;9.152;2023-04-25T16:39:31;9.70;97.90
947;DHT22;460;48.734;9.152;2023-04-25T16:41:59;9.80;98.70
947;DHT22;460;48.734;9.152;2023-04-25T16:44:26;9.80;97.50
947;DHT22;460;48.734;9.152;2023-04-25T16:46:52;9.90;98.40
947;DHT22;460;48.734;9.152;2023-04-25T16:49:19;9.90;97.80
947;DHT22;460;48.734;9.152;2023-04-25T16:51:46;9.70;97.20
947;DHT22;460;48.734;9.152;2023-04-25T16:54:13;9.60;96.70
947;DHT22;460;48.734;9.152;2023-04-25T16:56:40;9.60;97.10